sensor_id;sensor_type;location;lat;lon;timestamp;temperature;humidity
71367;DHT22;60030;52.274;8.040;2022-07-19T00:00:07;22.80;79.00
71367;DHT22;60030;52.274;8.040;2022-07-19T00:02:37;22.80;78.90
71367;DHT22;60030;52.274;8.040;2022-07-19T00:05:05;22.80;79.00
71367;DHT22;60030;52.274;8.040;2022-07-19T00:07:32;22.80;78.80
71367;DHT22;60030;52.274;8.040;2022-07-19T00:10:00;22.70;78.80
71367;DHT22;60030;52.274;8.040;2022-07-19T00:12:28;22.60;78.50
71367;DHT22;60030;52.274;8.040;2022-07-19T00:14:56;22.60;78.70
71367;DHT22;60030;52.274;8.040;2022-07-19T00:17:23;22.60;78.50
71367;DHT22;60030;52.274;8.040;2022-07-19T00:19:50;22.60;78.50
71367;DHT22;60030;52.274;8.040;2022-07-19T00:22:17;22.60;78.60
71367;DHT22;60030;52.274;8.040;2022-07-19T00:24:44;22.60;79.00
71367;DHT22;60030;52.274;8.040;2022-07-19T00:27:11;22.60;79.10
71367;DHT22;60030;52.274;8.040;2022-07-19T00:29:40;22.60;79.10
71367;DHT22;60030;52.274;8.040;2022-07-19T00:32:07;22.50;79.40
71367;DHT22;60030;52.274;8.040;2022-07-19T00:34:34;22.50;79.60
71367;DHT22;60030;52.274;8.040;2022-07-19T00:37:01;22.50;80.20
71367;DHT22;60030;52.274;8.040;2022-07-19T00:39:28;22.40;80.30
71367;DHT22;60030;52.274;8.040;2022-07-19T00:41:55;22.40;80.70
71367;DHT22;60030;52.274;8.040;2022-07-19T00:44:23;22.40;80.90
71367;DHT22;60030;52.274;8.040;2022-07-19T00:46:51;22.30;81.50
71367;DHT22;60030;52.274;8.040;2022-07-19T00:49:18;22.30;81.70
71367;DHT22;60030;52.274;8.040;2022-07-19T00:51:45;22.30;82.30
71367;DHT22;60030;52.274;8.040;2022-07-19T00:54:13;22.30;82.40
71367;DHT22;60030;52.274;8.040;2022-07-19T00:56:41;22.20;82.70
71367;DHT22;60030;52.274;8.040;2022-07-19T00:59:09;22.20;83.10
71367;DHT22;60030;52.274;8.040;2022-07-19T01:01:37;22.20;83.60
71367;DHT22;60030;52.274;8.040;2022-07-19T01:04:06;22.10;83.80
71367;DHT22;60030;52.274;8.040;2022-07-19T01:06:34;22.10;84.10
71367;DHT22;60030;52.274;8.040;2022-07-19T01:09:02;22.00;84.50
71367;DHT22;60030;52.274;8.040;2022-07-19T01:11:30;22.10;84.70
71367;DHT22;60030;52.274;8.040;2022-07-19T01:13:57;22.00;84.80
71367;DHT22;60030;52.274;8.040;2022-07-19T01:16:24;22.00;85.10
71367;DHT22;60030;52.274;8.040;2022-07-19T01:18:51;21.90;85.20
71367;DHT22;60030;52.274;8.040;2022-07-19T01:21:21;21.90;85.70
71367;DHT22;60030;52.274;8.040;2022-07-19T01:23:49;21.90;85.90
71367;DHT22;60030;52.274;8.040;2022-07-19T01:26:16;21.90;85.90
71367;DHT22;60030;52.274;8.040;2022-07-19T01:28:44;21.80;87.40
71367;DHT22;60030;52.274;8.040;2022-07-19T01:31:11;21.80;86.70
71367;DHT22;60030;52.274;8.040;2022-07-19T01:33:40;21.80;87.00
71367;DHT22;60030;52.274;8.040;2022-07-19T01:36:07;21.80;87.30
71367;DHT22;60030;52.274;8.040;2022-07-19T01:38:37;21.70;87.50
71367;DHT22;60030;52.274;8.040;2022-07-19T01:41:05;21.70;87.60
71367;DHT22;60030;52.274;8.040;2022-07-19T01:43:33;21.70;87.80
71367;DHT22;60030;52.274;8.040;2022-07-19T01:46:00;21.60;88.20
71367;DHT22;60030;52.274;8.040;2022-07-19T01:48:27;21.50;88.80
71367;DHT22;60030;52.274;8.040;2022-07-19T01:50:54;21.50;89.10
71367;DHT22;60030;52.274;8.040;2022-07-19T01:53:21;21.60;89.10
71367;DHT22;60030;52.274;8.040;2022-07-19T01:55:49;21.50;89.10
71367;DHT22;60030;52.274;8.040;2022-07-19T01:58:16;21.30;90.00
71367;DHT22;60030;52.274;8.040;2022-07-19T02:00:43;21.30;90.00
71367;DHT22;60030;52.274;8.040;2022-07-19T02:03:11;21.40;89.90
71367;DHT22;60030;52.274;8.040;2022-07-19T02:05:38;21.40;89.70
71367;DHT22;60030;52.274;8.040;2022-07-19T02:08:05;21.30;89.60
71367;DHT22;60030;52.274;8.040;2022-07-19T02:10:32;21.30;89.90
71367;DHT22;60030;52.274;8.040;2022-07-19T02:13:01;21.30;89.90
71367;DHT22;60030;52.274;8.040;2022-07-19T02:15:28;21.30;90.00
71367;DHT22;60030;52.274;8.040;2022-07-19T02:17:55;21.30;90.00
71367;DHT22;60030;52.274;8.040;2022-07-19T02:20:22;21.30;90.00
71367;DHT22;60030;52.274;8.040;2022-07-19T02:22:50;21.30;90.10
71367;DHT22;60030;52.274;8.040;2022-07-19T02:25:17;21.20;90.30
71367;DHT22;60030;52.274;8.040;2022-07-19T02:27:44;21.20;90.40
71367;DHT22;60030;52.274;8.040;2022-07-19T02:30:13;21.20;90.60
71367;DHT22;60030;52.274;8.040;2022-07-19T02:32:41;21.10;90.80
71367;DHT22;60030;52.274;8.040;2022-07-19T02:35:10;21.10;90.90
71367;DHT22;60030;52.274;8.040;2022-07-19T02:37:38;21.10;91.20
71367;DHT22;60030;52.274;8.040;2022-07-19T02:40:06;21.10;91.30
71367;DHT22;60030;52.274;8.040;2022-07-19T02:42:34;21.10;91.40
71367;DHT22;60030;52.274;8.040;2022-07-19T02:45:01;21.00;91.40
71367;DHT22;60030;52.274;8.040;2022-07-19T02:47:29;21.00;91.50
71367;DHT22;60030;52.274;8.040;2022-07-19T02:49:56;21.00;91.50
71367;DHT22;60030;52.274;8.040;2022-07-19T02:52:24;21.00;91.60
71367;DHT22;60030;52.274;8.040;2022-07-19T02:54:51;21.00;91.70
71367;DHT22;60030;52.274;8.040;2022-07-19T02:57:18;21.00;91.80
71367;DHT22;60030;52.274;8.040;2022-07-19T02:59:45;20.90;92.00
71367;DHT22;60030;52.274;8.040;2022-07-19T03:02:12;20.90;92.10
71367;DHT22;60030;52.274;8.040;2022-07-19T03:04:40;20.90;92.30
71367;DHT22;60030;52.274;8.040;2022-07-19T03:07:07;20.80;92.80
71367;DHT22;60030;52.274;8.040;2022-07-19T03:09:34;20.80;92.70
71367;DHT22;60030;52.274;8.040;2022-07-19T03:12:01;20.70;93.10
71367;DHT22;60030;52.274;8.040;2022-07-19T03:14:29;20.70;93.00
71367;DHT22;60030;52.274;8.040;2022-07-19T03:16:56;20.70;93.10
71367;DHT22;60030;52.274;8.040;2022-07-19T03:19:23;20.70;93.20
71367;DHT22;60030;52.274;8.040;2022-07-19T03:21:53;20.70;93.30
71367;DHT22;60030;52.274;8.040;2022-07-19T03:24:21;20.70;93.30
71367;DHT22;60030;52.274;8.040;2022-07-19T03:26:48;20.70;93.50
71367;DHT22;60030;52.274;8.040;2022-07-19T03:29:15;20.70;93.60
71367;DHT22;60030;52.274;8.040;2022-07-19T03:31:42;20.70;93.70
71367;DHT22;60030;52.274;8.040;2022-07-19T03:34:09;20.70;93.70
71367;DHT22;60030;52.274;8.040;2022-07-19T03:36:37;20.70;93.80
71367;DHT22;60030;52.274;8.040;2022-07-19T03:39:05;20.50;94.00
71367;DHT22;60030;52.274;8.040;2022-07-19T03:41:32;20.60;94.00
71367;DHT22;60030;52.274;8.040;2022-07-19T03:44:00;20.40;94.10
71367;DHT22;60030;52.274;8.040;2022-07-19T03:46:27;20.50;94.30
71367;DHT22;60030;52.274;8.040;2022-07-19T03:48:55;20.50;94.30
71367;DHT22;60030;52.274;8.040;2022-07-19T03:51:23;20.40;94.40
71367;DHT22;60030;52.274;8.040;2022-07-19T03:53:50;20.50;94.40
71367;DHT22;60030;52.274;8.040;2022-07-19T03:56:19;20.50;94.30
71367;DHT22;60030;52.274;8.040;2022-07-19T03:58:47;20.50;94.30
71367;DHT22;60030;52.274;8.040;2022-07-19T04:01:15;20.50;94.30
71367;DHT22;60030;52.274;8.040;2022-07-19T04:03:42;20.50;94.40
71367;DHT22;60030;52.274;8.040;2022-07-19T04:06:10;20.50;94.70
71367;DHT22;60030;52.274;8.040;2022-07-19T04:08:37;20.50;94.60
71367;DHT22;60030;52.274;8.040;2022-07-19T04:11:05;20.60;94.60
71367;DHT22;60030;52.274;8.040;2022-07-19T04:13:34;20.50;94.70
71367;DHT22;60030;52.274;8.040;2022-07-19T04:16:02;20.50;94.90
71367;DHT22;60030;52.274;8.040;2022-07-19T04:18:29;20.50;94.80
71367;DHT22;60030;52.274;8.040;2022-07-19T04:20:56;20.40;95.00
71367;DHT22;60030;52.274;8.040;2022-07-19T04:23:24;20.40;95.20
71367;DHT22;60030;52.274;8.040;2022-07-19T04:25:51;20.40;95.30
71367;DHT22;60030;52.274;8.040;2022-07-19T04:28:18;20.50;95.20
71367;DHT22;60030;52.274;8.040;2022-07-19T04:30:46;20.60;95.10
71367;DHT22;60030;52.274;8.040;2022-07-19T04:33:14;20.50;95.10
71367;DHT22;60030;52.274;8.040;2022-07-19T04:35:41;20.60;95.20
71367;DHT22;60030;52.274;8.040;2022-07-19T04:38:09;20.50;95.30
71367;DHT22;60030;52.274;8.040;2022-07-19T04:40:36;20.50;95.30
71367;DHT22;60030;52.274;8.040;2022-07-19T04:43:04;20.40;95.60
71367;DHT22;60030;52.274;8.040;2022-07-19T04:45:31;20.50;95.40
71367;DHT22;60030;52.274;8.040;2022-07-19T04:48:00;20.60;95.40
71367;DHT22;60030;52.274;8.040;2022-07-19T04:50:27;20.60;95.40
71367;DHT22;60030;52.274;8.040;2022-07-19T04:52:54;20.40;95.80
71367;DHT22;60030;52.274;8.040;2022-07-19T04:55:21;20.60;95.60
71367;DHT22;60030;52.274;8.040;2022-07-19T04:57:48;20.60;95.50
71367;DHT22;60030;52.274;8.040;2022-07-19T05:00:16;20.70;95.40
71367;DHT22;60030;52.274;8.040;2022-07-19T05:02:43;20.80;95.20
71367;DHT22;60030;52.274;8.040;2022-07-19T05:05:11;20.80;95.20
71367;DHT22;60030;52.274;8.040;2022-07-19T05:07:39;20.80;95.10
71367;DHT22;60030;52.274;8.040;2022-07-19T05:10:08;20.90;95.10
71367;DHT22;60030;52.274;8.040;2022-07-19T05:12:35;20.70;95.30
71367;DHT22;60030;52.274;8.040;2022-07-19T05:15:02;20.70;95.50
71367;DHT22;60030;52.274;8.040;2022-07-19T05:17:30;20.80;95.30
71367;DHT22;60030;52.274;8.040;2022-07-19T05:19:57;20.70;95.60
71367;DHT22;60030;52.274;8.040;2022-07-19T05:22:25;20.90;95.40
71367;DHT22;60030;52.274;8.040;2022-07-19T05:24:53;20.80;95.40
71367;DHT22;60030;52.274;8.040;2022-07-19T05:27:21;20.90;95.40
71367;DHT22;60030;52.274;8.040;2022-07-19T05:29:49;21.00;95.10
71367;DHT22;60030;52.274;8.040;2022-07-19T05:32:16;21.10;95.00
71367;DHT22;60030;52.274;8.040;2022-07-19T05:34:43;21.20;94.90
71367;DHT22;60030;52.274;8.040;2022-07-19T05:37:10;21.20;94.90
71367;DHT22;60030;52.274;8.040;2022-07-19T05:39:39;21.00;95.30
71367;DHT22;60030;52.274;8.040;2022-07-19T05:42:06;21.00;95.50
71367;DHT22;60030;52.274;8.040;2022-07-19T05:44:33;21.00;95.40
71367;DHT22;60030;52.274;8.040;2022-07-19T05:47:00;21.20;95.10
71367;DHT22;60030;52.274;8.040;2022-07-19T05:49:27;21.30;94.70
71367;DHT22;60030;52.274;8.040;2022-07-19T05:51:54;21.30;94.60
71367;DHT22;60030;52.274;8.040;2022-07-19T05:54:21;21.40;94.50
71367;DHT22;60030;52.274;8.040;2022-07-19T05:56:50;21.40;94.50
71367;DHT22;60030;52.274;8.040;2022-07-19T05:59:17;21.40;94.40
71367;DHT22;60030;52.274;8.040;2022-07-19T06:01:47;21.50;94.40
71367;DHT22;60030;52.274;8.040;2022-07-19T06:04:14;21.50;94.50
71367;DHT22;60030;52.274;8.040;2022-07-19T06:06:41;21.60;94.40
71367;DHT22;60030;52.274;8.040;2022-07-19T06:09:08;21.70;94.20
71367;DHT22;60030;52.274;8.040;2022-07-19T06:11:38;21.80;94.10
71367;DHT22;60030;52.274;8.040;2022-07-19T06:14:07;21.90;93.90
71367;DHT22;60030;52.274;8.040;2022-07-19T06:16:35;21.80;93.90
71367;DHT22;60030;52.274;8.040;2022-07-19T06:19:04;21.90;93.70
71367;DHT22;60030;52.274;8.040;2022-07-19T06:21:31;21.90;93.50
71367;DHT22;60030;52.274;8.040;2022-07-19T06:23:58;21.90;93.60
71367;DHT22;60030;52.274;8.040;2022-07-19T06:26:25;22.00;93.60
71367;DHT22;60030;52.274;8.040;2022-07-19T06:28:53;22.00;93.50
71367;DHT22;60030;52.274;8.040;2022-07-19T06:31:21;22.10;93.30
71367;DHT22;60030;52.274;8.040;2022-07-19T06:33:50;22.20;93.10
71367;DHT22;60030;52.274;8.040;2022-07-19T06:36:18;22.20;93.00
71367;DHT22;60030;52.274;8.040;2022-07-19T06:38:45;22.30;93.10
71367;DHT22;60030;52.274;8.040;2022-07-19T06:41:13;22.30;93.10
71367;DHT22;60030;52.274;8.040;2022-07-19T06:43:41;22.30;93.10
71367;DHT22;60030;52.274;8.040;2022-07-19T06:46:08;22.40;93.00
71367;DHT22;60030;52.274;8.040;2022-07-19T06:48:37;22.50;93.00
71367;DHT22;60030;52.274;8.040;2022-07-19T06:51:05;22.60;93.10
71367;DHT22;60030;52.274;8.040;2022-07-19T06:53:32;22.60;93.10
71367;DHT22;60030;52.274;8.040;2022-07-19T06:55:59;22.70;93.00
71367;DHT22;60030;52.274;8.040;2022-07-19T06:58:27;22.70;93.00
71367;DHT22;60030;52.274;8.040;2022-07-19T07:00:55;22.80;92.80
71367;DHT22;60030;52.274;8.040;2022-07-19T07:03:22;22.90;92.40
71367;DHT22;60030;52.274;8.040;2022-07-19T07:05:51;23.00;91.90
71367;DHT22;60030;52.274;8.040;2022-07-19T07:08:18;23.10;91.90
71367;DHT22;60030;52.274;8.040;2022-07-19T07:10:45;23.20;91.70
71367;DHT22;60030;52.274;8.040;2022-07-19T07:13:12;23.20;91.70
71367;DHT22;60030;52.274;8.040;2022-07-19T07:15:39;23.40;91.60
71367;DHT22;60030;52.274;8.040;2022-07-19T07:18:08;23.50;91.10
71367;DHT22;60030;52.274;8.040;2022-07-19T07:20:35;23.50;90.90
71367;DHT22;60030;52.274;8.040;2022-07-19T07:23:04;23.70;90.80
71367;DHT22;60030;52.274;8.040;2022-07-19T07:25:31;23.70;90.50
71367;DHT22;60030;52.274;8.040;2022-07-19T07:27:58;23.80;90.20
71367;DHT22;60030;52.274;8.040;2022-07-19T07:30:25;23.90;89.90
71367;DHT22;60030;52.274;8.040;2022-07-19T07:32:53;24.00;89.10
71367;DHT22;60030;52.274;8.040;2022-07-19T07:35:20;24.10;88.50
71367;DHT22;60030;52.274;8.040;2022-07-19T07:37:47;24.10;88.40
71367;DHT22;60030;52.274;8.040;2022-07-19T07:40:16;24.20;87.70
71367;DHT22;60030;52.274;8.040;2022-07-19T07:42:43;24.30;87.90
71367;DHT22;60030;52.274;8.040;2022-07-19T07:45:10;24.50;86.80
71367;DHT22;60030;52.274;8.040;2022-07-19T07:47:37;24.40;86.20
71367;DHT22;60030;52.274;8.040;2022-07-19T07:50:05;24.60;86.10
71367;DHT22;60030;52.274;8.040;2022-07-19T07:52:33;24.80;85.20
71367;DHT22;60030;52.274;8.040;2022-07-19T07:55:00;24.90;84.80
71367;DHT22;60030;52.274;8.040;2022-07-19T07:57:30;25.00;83.20
71367;DHT22;60030;52.274;8.040;2022-07-19T07:59:57;25.20;82.30
71367;DHT22;60030;52.274;8.040;2022-07-19T08:02:24;25.20;81.60
71367;DHT22;60030;52.274;8.040;2022-07-19T08:04:51;25.20;82.10
71367;DHT22;60030;52.274;8.040;2022-07-19T08:07:18;25.20;81.90
71367;DHT22;60030;52.274;8.040;2022-07-19T08:09:45;25.40;81.00
71367;DHT22;60030;52.274;8.040;2022-07-19T08:12:12;25.60;80.30
71367;DHT22;60030;52.274;8.040;2022-07-19T08:14:41;25.80;80.00
71367;DHT22;60030;52.274;8.040;2022-07-19T08:17:08;25.90;79.50
71367;DHT22;60030;52.274;8.040;2022-07-19T08:19:35;26.10;79.10
71367;DHT22;60030;52.274;8.040;2022-07-19T08:22:02;26.00;78.90
71367;DHT22;60030;52.274;8.040;2022-07-19T08:24:29;26.00;79.50
71367;DHT22;60030;52.274;8.040;2022-07-19T08:26:56;26.00;78.50
71367;DHT22;60030;52.274;8.040;2022-07-19T08:29:23;26.10;78.70
71367;DHT22;60030;52.274;8.040;2022-07-19T08:31:52;26.30;77.00
71367;DHT22;60030;52.274;8.040;2022-07-19T08:34:19;26.40;76.90
71367;DHT22;60030;52.274;8.040;2022-07-19T08:36:46;26.60;76.90
71367;DHT22;60030;52.274;8.040;2022-07-19T08:39:13;26.70;75.30
71367;DHT22;60030;52.274;8.040;2022-07-19T08:41:42;26.70;74.60
71367;DHT22;60030;52.274;8.040;2022-07-19T08:44:10;26.90;74.10
71367;DHT22;60030;52.274;8.040;2022-07-19T08:46:39;27.00;73.50
71367;DHT22;60030;52.274;8.040;2022-07-19T08:49:08;27.20;73.10
71367;DHT22;60030;52.274;8.040;2022-07-19T08:51:35;27.40;71.70
71367;DHT22;60030;52.274;8.040;2022-07-19T08:54:02;27.40;70.60
71367;DHT22;60030;52.274;8.040;2022-07-19T08:56:29;27.50;69.90
71367;DHT22;60030;52.274;8.040;2022-07-19T08:59:14;27.60;69.60
71367;DHT22;60030;52.274;8.040;2022-07-19T09:01:41;27.80;67.30
71367;DHT22;60030;52.274;8.040;2022-07-19T09:04:12;27.80;65.70
71367;DHT22;60030;52.274;8.040;2022-07-19T09:06:42;27.80;66.00
71367;DHT22;60030;52.274;8.040;2022-07-19T09:09:10;28.00;64.70
71367;DHT22;60030;52.274;8.040;2022-07-19T09:11:39;28.00;64.90
71367;DHT22;60030;52.274;8.040;2022-07-19T09:14:14;28.30;63.20
71367;DHT22;60030;52.274;8.040;2022-07-19T09:16:49;28.30;62.40
71367;DHT22;60030;52.274;8.040;2022-07-19T09:19:18;28.40;60.40
71367;DHT22;60030;52.274;8.040;2022-07-19T09:21:54;28.40;59.90
71367;DHT22;60030;52.274;8.040;2022-07-19T09:24:22;29.00;59.00
71367;DHT22;60030;52.274;8.040;2022-07-19T09:26:58;28.80;57.40
71367;DHT22;60030;52.274;8.040;2022-07-19T09:29:27;28.90;57.90
71367;DHT22;60030;52.274;8.040;2022-07-19T09:32:05;29.10;57.80
71367;DHT22;60030;52.274;8.040;2022-07-19T09:34:36;29.20;55.40
71367;DHT22;60030;52.274;8.040;2022-07-19T09:37:18;29.30;54.70
71367;DHT22;60030;52.274;8.040;2022-07-19T09:39:47;29.50;55.00
71367;DHT22;60030;52.274;8.040;2022-07-19T09:42:16;29.70;53.40
71367;DHT22;60030;52.274;8.040;2022-07-19T09:44:44;30.00;52.00
71367;DHT22;60030;52.274;8.040;2022-07-19T09:47:11;30.10;51.90
71367;DHT22;60030;52.274;8.040;2022-07-19T09:49:40;29.80;52.00
71367;DHT22;60030;52.274;8.040;2022-07-19T09:52:08;30.00;51.20
71367;DHT22;60030;52.274;8.040;2022-07-19T09:54:38;30.30;51.10
71367;DHT22;60030;52.274;8.040;2022-07-19T09:57:07;30.50;51.30
71367;DHT22;60030;52.274;8.040;2022-07-19T09:59:37;30.50;51.30
71367;DHT22;60030;52.274;8.040;2022-07-19T10:02:11;30.60;50.90
71367;DHT22;60030;52.274;8.040;2022-07-19T10:04:40;30.40;51.20
71367;DHT22;60030;52.274;8.040;2022-07-19T10:07:07;30.50;50.70
71367;DHT22;60030;52.274;8.040;2022-07-19T10:09:35;30.60;50.30
71367;DHT22;60030;52.274;8.040;2022-07-19T10:12:03;30.80;50.00
71367;DHT22;60030;52.274;8.040;2022-07-19T10:14:30;30.70;49.60
71367;DHT22;60030;52.274;8.040;2022-07-19T10:17:21;30.70;49.10
71367;DHT22;60030;52.274;8.040;2022-07-19T10:19:51;30.90;49.00
71367;DHT22;60030;52.274;8.040;2022-07-19T10:22:20;31.20;48.50
71367;DHT22;60030;52.274;8.040;2022-07-19T10:24:51;31.20;48.30
71367;DHT22;60030;52.274;8.040;2022-07-19T10:27:36;31.20;48.50
71367;DHT22;60030;52.274;8.040;2022-07-19T10:30:23;31.60;48.20
71367;DHT22;60030;52.274;8.040;2022-07-19T10:32:53;31.50;47.80
71367;DHT22;60030;52.274;8.040;2022-07-19T10:35:27;31.60;47.70
71367;DHT22;60030;52.274;8.040;2022-07-19T10:37:56;31.50;48.00
71367;DHT22;60030;52.274;8.040;2022-07-19T10:40:37;31.80;47.80
71367;DHT22;60030;52.274;8.040;2022-07-19T10:43:07;31.90;47.40
71367;DHT22;60030;52.274;8.040;2022-07-19T10:45:35;32.00;47.60
71367;DHT22;60030;52.274;8.040;2022-07-19T10:48:13;32.30;46.60
71367;DHT22;60030;52.274;8.040;2022-07-19T10:51:00;32.30;46.10
71367;DHT22;60030;52.274;8.040;2022-07-19T10:53:58;32.40;45.90
71367;DHT22;60030;52.274;8.040;2022-07-19T10:56:38;32.40;45.10
71367;DHT22;60030;52.274;8.040;2022-07-19T10:59:07;32.30;44.90
71367;DHT22;60030;52.274;8.040;2022-07-19T11:01:36;32.50;45.60
71367;DHT22;60030;52.274;8.040;2022-07-19T11:04:26;32.90;45.80
71367;DHT22;60030;52.274;8.040;2022-07-19T11:07:12;33.00;45.40
71367;DHT22;60030;52.274;8.040;2022-07-19T11:09:42;33.10;44.70
71367;DHT22;60030;52.274;8.040;2022-07-19T11:12:31;33.10;44.40
71367;DHT22;60030;52.274;8.040;2022-07-19T11:15:00;33.10;44.40
71367;DHT22;60030;52.274;8.040;2022-07-19T11:17:28;32.90;44.50
71367;DHT22;60030;52.274;8.040;2022-07-19T11:20:02;33.20;44.00
71367;DHT22;60030;52.274;8.040;2022-07-19T11:22:38;33.60;44.60
71367;DHT22;60030;52.274;8.040;2022-07-19T11:25:06;33.70;43.70
71367;DHT22;60030;52.274;8.040;2022-07-19T11:27:34;34.00;43.90
71367;DHT22;60030;52.274;8.040;2022-07-19T11:30:04;34.20;42.70
71367;DHT22;60030;52.274;8.040;2022-07-19T11:32:32;34.10;42.70
71367;DHT22;60030;52.274;8.040;2022-07-19T11:35:01;34.00;42.30
71367;DHT22;60030;52.274;8.040;2022-07-19T11:37:29;34.60;42.20
71367;DHT22;60030;52.274;8.040;2022-07-19T11:39:58;34.50;40.60
71367;DHT22;60030;52.274;8.040;2022-07-19T11:42:30;34.70;40.20
71367;DHT22;60030;52.274;8.040;2022-07-19T11:44:58;34.90;40.40
71367;DHT22;60030;52.274;8.040;2022-07-19T11:47:25;35.20;40.20
71367;DHT22;60030;52.274;8.040;2022-07-19T11:49:52;35.40;39.90
71367;DHT22;60030;52.274;8.040;2022-07-19T11:52:20;35.30;38.30
71367;DHT22;60030;52.274;8.040;2022-07-19T11:55:00;35.20;37.40
71367;DHT22;60030;52.274;8.040;2022-07-19T11:57:28;35.70;38.80
71367;DHT22;60030;52.274;8.040;2022-07-19T11:59:55;35.60;38.60
71367;DHT22;60030;52.274;8.040;2022-07-19T12:02:24;35.70;39.50
71367;DHT22;60030;52.274;8.040;2022-07-19T12:04:51;36.10;38.40
71367;DHT22;60030;52.274;8.040;2022-07-19T12:07:18;36.40;35.50
71367;DHT22;60030;52.274;8.040;2022-07-19T12:09:45;36.30;35.30
71367;DHT22;60030;52.274;8.040;2022-07-19T12:12:16;36.70;34.80
71367;DHT22;60030;52.274;8.040;2022-07-19T12:14:43;37.10;33.70
71367;DHT22;60030;52.274;8.040;2022-07-19T12:17:13;37.70;32.90
71367;DHT22;60030;52.274;8.040;2022-07-19T12:19:43;38.30;31.40
71367;DHT22;60030;52.274;8.040;2022-07-19T12:22:26;39.50;30.20
71367;DHT22;60030;52.274;8.040;2022-07-19T12:24:54;40.60;29.90
71367;DHT22;60030;52.274;8.040;2022-07-19T12:27:22;41.20;29.30
71367;DHT22;60030;52.274;8.040;2022-07-19T12:29:54;41.40;29.70
71367;DHT22;60030;52.274;8.040;2022-07-19T12:32:29;41.10;29.70
71367;DHT22;60030;52.274;8.040;2022-07-19T12:34:58;40.40;29.70
71367;DHT22;60030;52.274;8.040;2022-07-19T12:37:29;40.00;30.10
71367;DHT22;60030;52.274;8.040;2022-07-19T12:40:03;39.90;30.30
71367;DHT22;60030;52.274;8.040;2022-07-19T12:42:42;39.80;29.20
71367;DHT22;60030;52.274;8.040;2022-07-19T12:45:11;39.80;29.50
71367;DHT22;60030;52.274;8.040;2022-07-19T12:47:39;39.60;30.20
71367;DHT22;60030;52.274;8.040;2022-07-19T12:50:08;39.20;29.20
71367;DHT22;60030;52.274;8.040;2022-07-19T12:52:35;39.20;30.00
71367;DHT22;60030;52.274;8.040;2022-07-19T12:55:03;39.30;29.60
71367;DHT22;60030;52.274;8.040;2022-07-19T12:57:30;39.40;29.80
71367;DHT22;60030;52.274;8.040;2022-07-19T13:00:00;39.60;29.60
71367;DHT22;60030;52.274;8.040;2022-07-19T13:02:27;39.40;29.10
71367;DHT22;60030;52.274;8.040;2022-07-19T13:04:54;39.60;29.50
71367;DHT22;60030;52.274;8.040;2022-07-19T13:07:21;39.80;29.50
71367;DHT22;60030;52.274;8.040;2022-07-19T13:09:49;39.80;29.10
71367;DHT22;60030;52.274;8.040;2022-07-19T13:12:16;39.90;29.20
71367;DHT22;60030;52.274;8.040;2022-07-19T13:14:43;39.90;29.00
71367;DHT22;60030;52.274;8.040;2022-07-19T13:17:12;40.10;28.30
71367;DHT22;60030;52.274;8.040;2022-07-19T13:19:39;40.20;28.50
71367;DHT22;60030;52.274;8.040;2022-07-19T13:22:07;40.50;28.10
71367;DHT22;60030;52.274;8.040;2022-07-19T13:24:34;40.70;27.90
71367;DHT22;60030;52.274;8.040;2022-07-19T13:27:01;40.80;27.70
71367;DHT22;60030;52.274;8.040;2022-07-19T13:29:28;41.00;27.40
71367;DHT22;60030;52.274;8.040;2022-07-19T13:31:55;41.50;27.10
71367;DHT22;60030;52.274;8.040;2022-07-19T13:34:26;41.80;26.60
71367;DHT22;60030;52.274;8.040;2022-07-19T13:36:53;42.00;26.70
71367;DHT22;60030;52.274;8.040;2022-07-19T13:39:20;42.40;26.20
71367;DHT22;60030;52.274;8.040;2022-07-19T13:41:47;43.10;25.70
71367;DHT22;60030;52.274;8.040;2022-07-19T13:44:15;43.50;26.00
71367;DHT22;60030;52.274;8.040;2022-07-19T13:46:42;43.60;25.60
71367;DHT22;60030;52.274;8.040;2022-07-19T13:49:09;43.70;25.00
71367;DHT22;60030;52.274;8.040;2022-07-19T13:51:38;43.80;24.50
71367;DHT22;60030;52.274;8.040;2022-07-19T13:54:05;43.60;24.20
71367;DHT22;60030;52.274;8.040;2022-07-19T13:56:32;43.60;24.50
71367;DHT22;60030;52.274;8.040;2022-07-19T13:59:00;44.10;24.20
71367;DHT22;60030;52.274;8.040;2022-07-19T14:01:27;44.40;24.20
71367;DHT22;60030;52.274;8.040;2022-07-19T14:03:56;44.50;24.70
71367;DHT22;60030;52.274;8.040;2022-07-19T14:06:23;44.40;23.90
71367;DHT22;60030;52.274;8.040;2022-07-19T14:08:53;44.80;24.30
71367;DHT22;60030;52.274;8.040;2022-07-19T14:11:20;44.50;24.20
71367;DHT22;60030;52.274;8.040;2022-07-19T14:13:47;44.20;24.90
71367;DHT22;60030;52.274;8.040;2022-07-19T14:16:14;44.60;24.80
71367;DHT22;60030;52.274;8.040;2022-07-19T14:18:42;44.80;24.60
71367;DHT22;60030;52.274;8.040;2022-07-19T14:21:09;44.60;24.90
71367;DHT22;60030;52.274;8.040;2022-07-19T14:23:36;44.80;25.70
71367;DHT22;60030;52.274;8.040;2022-07-19T14:26:05;44.50;25.10
71367;DHT22;60030;52.274;8.040;2022-07-19T14:28:32;44.40;25.50
71367;DHT22;60030;52.274;8.040;2022-07-19T14:30:59;44.20;25.50
71367;DHT22;60030;52.274;8.040;2022-07-19T14:33:26;44.00;25.40
71367;DHT22;60030;52.274;8.040;2022-07-19T14:35:53;43.00;26.00
71367;DHT22;60030;52.274;8.040;2022-07-19T14:38:20;42.30;25.80
71367;DHT22;60030;52.274;8.040;2022-07-19T14:40:47;42.00;26.20
71367;DHT22;60030;52.274;8.040;2022-07-19T14:43:16;41.80;27.20
71367;DHT22;60030;52.274;8.040;2022-07-19T14:45:43;41.60;27.40
71367;DHT22;60030;52.274;8.040;2022-07-19T14:48:10;41.40;27.60
71367;DHT22;60030;52.274;8.040;2022-07-19T14:50:38;41.20;27.70
71367;DHT22;60030;52.274;8.040;2022-07-19T14:53:05;41.20;27.90
71367;DHT22;60030;52.274;8.040;2022-07-19T14:55:32;41.20;27.60
71367;DHT22;60030;52.274;8.040;2022-07-19T14:57:59;41.20;27.40
71367;DHT22;60030;52.274;8.040;2022-07-19T15:00:28;41.20;26.80
71367;DHT22;60030;52.274;8.040;2022-07-19T15:02:56;41.20;27.30
71367;DHT22;60030;52.274;8.040;2022-07-19T15:05:23;41.10;27.60
71367;DHT22;60030;52.274;8.040;2022-07-19T15:07:50;41.40;27.90
71367;DHT22;60030;52.274;8.040;2022-07-19T15:10:17;41.80;28.20
71367;DHT22;60030;52.274;8.040;2022-07-19T15:12:44;42.30;27.90
71367;DHT22;60030;52.274;8.040;2022-07-19T15:15:11;42.80;27.60
71367;DHT22;60030;52.274;8.040;2022-07-19T15:17:40;43.30;26.90
71367;DHT22;60030;52.274;8.040;2022-07-19T15:20:08;43.30;26.80
71367;DHT22;60030;52.274;8.040;2022-07-19T15:22:35;42.60;26.60
71367;DHT22;60030;52.274;8.040;2022-07-19T15:25:04;42.60;27.00
71367;DHT22;60030;52.274;8.040;2022-07-19T15:27:31;43.20;26.80
71367;DHT22;60030;52.274;8.040;2022-07-19T15:29:58;43.50;26.40
71367;DHT22;60030;52.274;8.040;2022-07-19T15:32:25;43.80;26.30
71367;DHT22;60030;52.274;8.040;2022-07-19T15:34:54;43.90;25.80
71367;DHT22;60030;52.274;8.040;2022-07-19T15:37:21;44.00;25.80